Sycamore, Georgia
Current Conditions -  °F | °C
As of 9:50 AM on Saturday 01 Nov 2014 (Local Time) from KTMA Reporting Station
Clear Clear  
Wind Chill: 35°   Ceiling: Unl
Heat Index: 43°   Visibility: 10mi
Dew Point: 26°   Wind: 18mph
Humidity: 51%   Direction: 310°NW
Pressure: 30.02"   Gusts: 30mph
Location:  31.67°N, 83.64°W
Report Text: KTMA 011350Z AUTO 31016G26KT 10SM CLR 06/M03 A3002 RMK AO2 T00601035
Loading
Personal Weather Stations






























Interactive Weather Map
Tropical Storm Tracking
New forecast layout! Learn more

10-Day Weather Forecast

Advertisements
Track Severe Weather on mobile